APH weather

A P Hill AAF (Fort A P Hill) Airport
Fort A. P. Hill, Virginia, United States

Public forecast

Using degrees Fahrenheit for public forecast. Weather courtesy of forecast.io.

METAR (pilot weather report)

Closest report is Shannon Airport, 13.4 nm (24.8 km) NNW. Retrieved 2019/07/16 03:35 UTC (0 seconds ago):

KEZF 160335Z AUTO 00000KT 10SM CLR 26/24 A3006 RMK AO2 T02560236

TAF (pilot weather forecast)

Forecast is more than 12 hours old.

Closest forecast is Quantico MCAF /Turner field, 26.0 nm (48.1 km) N. Retrieved 2016/02/08 15:59 UTC (3 years ago):

TAF COR KNYG 081500Z 0815/0915 VRB06KT 9999 FEW080 SCT180 620209 621105 540009 540909 QNH2970INS BECMG 0822/0823 VRB06KT 9000 -RA FEW030 SCT080 BKN120 620209 621105 540009 540909 QNH2952INS BECMG 0905/0907 VRB06KT 8000 RASN 600000 500000 BKN020 OVC030 500000 QNH2947INS T07/0820Z T00/0911Z COR 1553